sensor_id;sensor_type;location;lat;lon;timestamp;temperature;humidity
77829;DHT22;67019;51.034;3.728;2023-05-18T00:00:15;9.50;97.00
77829;DHT22;67019;51.034;3.728;2023-05-18T00:02:44;9.60;96.60
77829;DHT22;67019;51.034;3.728;2023-05-18T00:05:13;9.80;96.30
77829;DHT22;67019;51.034;3.728;2023-05-18T00:07:43;9.90;96.30
77829;DHT22;67019;51.034;3.728;2023-05-18T00:12:39;9.70;95.80
77829;DHT22;67019;51.034;3.728;2023-05-18T00:15:07;9.70;95.40
77829;DHT22;67019;51.034;3.728;2023-05-18T00:17:35;9.60;95.50
77829;DHT22;67019;51.034;3.728;2023-05-18T00:20:03;9.60;95.70
77829;DHT22;67019;51.034;3.728;2023-05-18T00:22:31;9.80;95.70
77829;DHT22;67019;51.034;3.728;2023-05-18T00:27:26;9.40;96.00
77829;DHT22;67019;51.034;3.728;2023-05-18T00:29:54;9.60;96.00
77829;DHT22;67019;51.034;3.728;2023-05-18T00:32:21;9.30;96.20
77829;DHT22;67019;51.034;3.728;2023-05-18T00:34:49;9.40;96.30
77829;DHT22;67019;51.034;3.728;2023-05-18T00:37:16;10.50;96.80
77829;DHT22;67019;51.034;3.728;2023-05-18T00:39:44;9.40;96.40
77829;DHT22;67019;51.034;3.728;2023-05-18T00:42:12;9.60;96.10
77829;DHT22;67019;51.034;3.728;2023-05-18T00:44:39;9.60;96.30
77829;DHT22;67019;51.034;3.728;2023-05-18T00:47:07;9.40;95.80
77829;DHT22;67019;51.034;3.728;2023-05-18T00:49:35;9.60;95.80
77829;DHT22;67019;51.034;3.728;2023-05-18T00:52:19;9.80;95.70
77829;DHT22;67019;51.034;3.728;2023-05-18T00:54:47;9.30;95.80
77829;DHT22;67019;51.034;3.728;2023-05-18T00:57:15;9.20;96.30
77829;DHT22;67019;51.034;3.728;2023-05-18T00:59:45;9.00;96.60
77829;DHT22;67019;51.034;3.728;2023-05-18T01:02:15;9.10;96.70
77829;DHT22;67019;51.034;3.728;2023-05-18T01:04:42;9.00;97.00
77829;DHT22;67019;51.034;3.728;2023-05-18T01:07:10;9.20;96.80
77829;DHT22;67019;51.034;3.728;2023-05-18T01:09:38;9.30;96.50
77829;DHT22;67019;51.034;3.728;2023-05-18T01:23:20;8.90;96.80
77829;DHT22;67019;51.034;3.728;2023-05-18T01:30:54;9.10;96.80
77829;DHT22;67019;51.034;3.728;2023-05-18T01:33:22;9.10;96.90
77829;DHT22;67019;51.034;3.728;2023-05-18T01:35:51;8.60;96.90
77829;DHT22;67019;51.034;3.728;2023-05-18T01:48:19;8.50;97.00
77829;DHT22;67019;51.034;3.728;2023-05-18T01:50:48;8.60;97.20
77829;DHT22;67019;51.034;3.728;2023-05-18T01:55:55;8.40;97.40
77829;DHT22;67019;51.034;3.728;2023-05-18T01:58:24;8.40;97.60
77829;DHT22;67019;51.034;3.728;2023-05-18T02:00:54;8.30;97.90
77829;DHT22;67019;51.034;3.728;2023-05-18T02:03:22;8.60;97.50
77829;DHT22;67019;51.034;3.728;2023-05-18T02:05:49;8.80;97.30
77829;DHT22;67019;51.034;3.728;2023-05-18T02:08:17;8.40;97.10
77829;DHT22;67019;51.034;3.728;2023-05-18T02:10:44;8.60;97.40
77829;DHT22;67019;51.034;3.728;2023-05-18T02:15:39;8.30;98.00
77829;DHT22;67019;51.034;3.728;2023-05-18T02:20:34;7.90;98.40
77829;DHT22;67019;51.034;3.728;2023-05-18T02:23:03;8.30;98.10
77829;DHT22;67019;51.034;3.728;2023-05-18T02:25:30;8.50;98.10
77829;DHT22;67019;51.034;3.728;2023-05-18T02:30:25;8.70;97.40
77829;DHT22;67019;51.034;3.728;2023-05-18T02:32:54;8.50;97.20
77829;DHT22;67019;51.034;3.728;2023-05-18T02:35:22;8.60;97.40
77829;DHT22;67019;51.034;3.728;2023-05-18T02:37:50;8.60;97.50
77829;DHT22;67019;51.034;3.728;2023-05-18T02:40:19;8.40;97.40
77829;DHT22;67019;51.034;3.728;2023-05-18T02:42:47;8.40;97.10
77829;DHT22;67019;51.034;3.728;2023-05-18T02:45:15;8.30;97.00
77829;DHT22;67019;51.034;3.728;2023-05-18T02:50:10;8.30;97.20
77829;DHT22;67019;51.034;3.728;2023-05-18T03:02:27;7.90;97.60
77829;DHT22;67019;51.034;3.728;2023-05-18T03:04:55;8.20;97.30
77829;DHT22;67019;51.034;3.728;2023-05-18T03:07:23;8.40;97.30
77829;DHT22;67019;51.034;3.728;2023-05-18T03:12:19;8.60;97.00
77829;DHT22;67019;51.034;3.728;2023-05-18T03:14:47;8.30;96.80
77829;DHT22;67019;51.034;3.728;2023-05-18T03:22:09;8.00;96.90
77829;DHT22;67019;51.034;3.728;2023-05-18T03:27:06;8.20;97.10
77829;DHT22;67019;51.034;3.728;2023-05-18T03:34:28;8.40;96.70
77829;DHT22;67019;51.034;3.728;2023-05-18T03:36:55;8.30;96.60
77829;DHT22;67019;51.034;3.728;2023-05-18T03:39:23;8.20;96.60
77829;DHT22;67019;51.034;3.728;2023-05-18T03:41:51;8.60;96.60
77829;DHT22;67019;51.034;3.728;2023-05-18T03:46:46;8.60;96.80
77829;DHT22;67019;51.034;3.728;2023-05-18T03:49:13;8.00;96.60
77829;DHT22;67019;51.034;3.728;2023-05-18T03:51:41;8.20;97.10
77829;DHT22;67019;51.034;3.728;2023-05-18T03:54:09;8.20;97.00
77829;DHT22;67019;51.034;3.728;2023-05-18T03:56:36;8.20;97.00
77829;DHT22;67019;51.034;3.728;2023-05-18T03:59:04;8.20;97.40
77829;DHT22;67019;51.034;3.728;2023-05-18T04:01:32;7.90;97.30
77829;DHT22;67019;51.034;3.728;2023-05-18T04:04:00;8.10;97.00
77829;DHT22;67019;51.034;3.728;2023-05-18T04:06:27;7.80;97.00
77829;DHT22;67019;51.034;3.728;2023-05-18T04:11:22;8.10;97.20
77829;DHT22;67019;51.034;3.728;2023-05-18T04:16:18;8.00;96.90
77829;DHT22;67019;51.034;3.728;2023-05-18T04:26:10;8.00;97.20
77829;DHT22;67019;51.034;3.728;2023-05-18T04:28:38;8.00;96.90
77829;DHT22;67019;51.034;3.728;2023-05-18T04:31:05;8.30;96.90
77829;DHT22;67019;51.034;3.728;2023-05-18T04:33:33;8.00;96.60
77829;DHT22;67019;51.034;3.728;2023-05-18T04:38:29;8.50;96.10
77829;DHT22;67019;51.034;3.728;2023-05-18T04:43:26;8.10;96.10
77829;DHT22;67019;51.034;3.728;2023-05-18T04:45:53;8.40;96.20
77829;DHT22;67019;51.034;3.728;2023-05-18T04:48:23;8.20;96.30
77829;DHT22;67019;51.034;3.728;2023-05-18T04:50:51;7.90;96.80
77829;DHT22;67019;51.034;3.728;2023-05-18T04:53:21;7.80;96.90
77829;DHT22;67019;51.034;3.728;2023-05-18T04:55:49;8.40;96.40
77829;DHT22;67019;51.034;3.728;2023-05-18T04:58:18;8.20;96.70
77829;DHT22;67019;51.034;3.728;2023-05-18T05:05:40;8.70;96.30
77829;DHT22;67019;51.034;3.728;2023-05-18T05:08:08;8.70;95.50
77829;DHT22;67019;51.034;3.728;2023-05-18T05:10:36;8.80;95.30
77829;DHT22;67019;51.034;3.728;2023-05-18T05:13:03;8.80;95.00
77829;DHT22;67019;51.034;3.728;2023-05-18T05:15:31;8.80;95.20
77829;DHT22;67019;51.034;3.728;2023-05-18T05:22:54;8.80;94.90
77829;DHT22;67019;51.034;3.728;2023-05-18T05:27:49;8.60;94.90
77829;DHT22;67019;51.034;3.728;2023-05-18T05:30:16;8.90;95.00
77829;DHT22;67019;51.034;3.728;2023-05-18T05:37:39;8.40;95.00
77829;DHT22;67019;51.034;3.728;2023-05-18T05:45:02;8.70;95.50
77829;DHT22;67019;51.034;3.728;2023-05-18T05:47:30;8.90;95.20
77829;DHT22;67019;51.034;3.728;2023-05-18T05:54:54;8.90;94.60
77829;DHT22;67019;51.034;3.728;2023-05-18T05:57:22;9.20;94.50
77829;DHT22;67019;51.034;3.728;2023-05-18T06:07:12;8.90;94.10
77829;DHT22;67019;51.034;3.728;2023-05-18T06:09:40;9.00;94.40
77829;DHT22;67019;51.034;3.728;2023-05-18T06:12:08;9.00;94.10
77829;DHT22;67019;51.034;3.728;2023-05-18T06:14:43;9.10;93.90
77829;DHT22;67019;51.034;3.728;2023-05-18T06:19:40;9.00;94.10
77829;DHT22;67019;51.034;3.728;2023-05-18T06:22:07;9.30;93.40
77829;DHT22;67019;51.034;3.728;2023-05-18T06:27:02;9.20;93.20
77829;DHT22;67019;51.034;3.728;2023-05-18T06:29:30;9.00;93.60
77829;DHT22;67019;51.034;3.728;2023-05-18T06:31:57;8.90;93.70
77829;DHT22;67019;51.034;3.728;2023-05-18T06:34:25;8.60;93.70
77829;DHT22;67019;51.034;3.728;2023-05-18T06:36:52;12.20;95.50
77829;DHT22;67019;51.034;3.728;2023-05-18T06:41:47;9.00;94.50
77829;DHT22;67019;51.034;3.728;2023-05-18T06:44:17;9.30;94.00
77829;DHT22;67019;51.034;3.728;2023-05-18T06:46:46;9.10;93.70
77829;DHT22;67019;51.034;3.728;2023-05-18T06:49:14;9.20;94.00
77829;DHT22;67019;51.034;3.728;2023-05-18T06:51:41;8.90;94.10
77829;DHT22;67019;51.034;3.728;2023-05-18T06:54:11;9.50;93.80
77829;DHT22;67019;51.034;3.728;2023-05-18T06:59:07;9.30;93.60
77829;DHT22;67019;51.034;3.728;2023-05-18T07:01:34;9.30;93.40
77829;DHT22;67019;51.034;3.728;2023-05-18T07:04:02;9.40;93.30
77829;DHT22;67019;51.034;3.728;2023-05-18T07:06:29;9.60;93.30
77829;DHT22;67019;51.034;3.728;2023-05-18T07:11:27;10.10;92.40
77829;DHT22;67019;51.034;3.728;2023-05-18T07:13:55;9.90;92.30
77829;DHT22;67019;51.034;3.728;2023-05-18T07:18:49;10.30;92.20
77829;DHT22;67019;51.034;3.728;2023-05-18T07:21:17;10.30;92.10
77829;DHT22;67019;51.034;3.728;2023-05-18T07:23:45;10.80;91.40
77829;DHT22;67019;51.034;3.728;2023-05-18T07:26:12;10.80;90.70
77829;DHT22;67019;51.034;3.728;2023-05-18T07:28:40;11.10;90.30
77829;DHT22;67019;51.034;3.728;2023-05-18T07:31:08;11.00;90.60
77829;DHT22;67019;51.034;3.728;2023-05-18T07:36:03;11.00;90.60
77829;DHT22;67019;51.034;3.728;2023-05-18T07:40:58;10.80;90.80
77829;DHT22;67019;51.034;3.728;2023-05-18T07:43:26;10.90;91.00
77829;DHT22;67019;51.034;3.728;2023-05-18T07:45:53;11.50;89.80
77829;DHT22;67019;51.034;3.728;2023-05-18T07:48:21;11.20;89.00
77829;DHT22;67019;51.034;3.728;2023-05-18T07:50:48;11.40;90.00
77829;DHT22;67019;51.034;3.728;2023-05-18T07:53:17;11.60;88.10
77829;DHT22;67019;51.034;3.728;2023-05-18T07:55:44;11.50;89.10
77829;DHT22;67019;51.034;3.728;2023-05-18T07:58:13;11.50;88.30
77829;DHT22;67019;51.034;3.728;2023-05-18T08:00:41;11.80;88.10
77829;DHT22;67019;51.034;3.728;2023-05-18T08:03:09;11.60;88.60
77829;DHT22;67019;51.034;3.728;2023-05-18T08:05:37;11.90;88.20
77829;DHT22;67019;51.034;3.728;2023-05-18T08:08:05;11.80;88.50
77829;DHT22;67019;51.034;3.728;2023-05-18T08:10:33;11.70;87.00
77829;DHT22;67019;51.034;3.728;2023-05-18T08:15:28;11.70;88.70
77829;DHT22;67019;51.034;3.728;2023-05-18T08:17:56;12.10;86.80
77829;DHT22;67019;51.034;3.728;2023-05-18T08:20:24;12.20;85.60
77829;DHT22;67019;51.034;3.728;2023-05-18T08:22:53;12.50;83.80
77829;DHT22;67019;51.034;3.728;2023-05-18T08:25:21;10.60;82.90
77829;DHT22;67019;51.034;3.728;2023-05-18T08:27:49;12.40;83.90
77829;DHT22;67019;51.034;3.728;2023-05-18T08:30:16;12.50;83.20
77829;DHT22;67019;51.034;3.728;2023-05-18T08:32:46;12.60;83.70
77829;DHT22;67019;51.034;3.728;2023-05-18T08:37:41;13.20;83.10
77829;DHT22;67019;51.034;3.728;2023-05-18T08:40:09;13.30;81.10
77829;DHT22;67019;51.034;3.728;2023-05-18T08:45:40;13.50;78.90
77829;DHT22;67019;51.034;3.728;2023-05-18T08:48:10;13.90;78.00
77829;DHT22;67019;51.034;3.728;2023-05-18T08:50:40;14.00;77.10
77829;DHT22;67019;51.034;3.728;2023-05-18T08:53:09;14.00;76.40
77829;DHT22;67019;51.034;3.728;2023-05-18T08:55:39;14.10;77.60
77829;DHT22;67019;51.034;3.728;2023-05-18T08:58:07;13.90;78.50
77829;DHT22;67019;51.034;3.728;2023-05-18T09:00:35;14.40;76.10
77829;DHT22;67019;51.034;3.728;2023-05-18T09:03:04;14.00;75.30
77829;DHT22;67019;51.034;3.728;2023-05-18T09:05:32;14.00;76.00
77829;DHT22;67019;51.034;3.728;2023-05-18T09:08:00;13.80;77.80
77829;DHT22;67019;51.034;3.728;2023-05-18T09:10:30;14.20;76.20
77829;DHT22;67019;51.034;3.728;2023-05-18T09:12:58;12.50;70.80
77829;DHT22;67019;51.034;3.728;2023-05-18T09:15:28;14.60;72.70
77829;DHT22;67019;51.034;3.728;2023-05-18T09:17:55;14.50;73.20
77829;DHT22;67019;51.034;3.728;2023-05-18T09:20:24;14.70;72.60
77829;DHT22;67019;51.034;3.728;2023-05-18T09:22:52;13.50;71.20
77829;DHT22;67019;51.034;3.728;2023-05-18T09:25:20;13.90;72.60
77829;DHT22;67019;51.034;3.728;2023-05-18T09:27:49;15.00;70.80
77829;DHT22;67019;51.034;3.728;2023-05-18T09:30:18;15.00;71.10
77829;DHT22;67019;51.034;3.728;2023-05-18T09:32:46;14.90;70.20
77829;DHT22;67019;51.034;3.728;2023-05-18T09:37:41;15.00;68.40
77829;DHT22;67019;51.034;3.728;2023-05-18T09:40:09;15.10;68.10
77829;DHT22;67019;51.034;3.728;2023-05-18T09:42:40;14.90;66.40
77829;DHT22;67019;51.034;3.728;2023-05-18T09:45:21;14.90;67.30
77829;DHT22;67019;51.034;3.728;2023-05-18T09:47:51;14.90;67.40
77829;DHT22;67019;51.034;3.728;2023-05-18T09:50:23;15.20;68.10
77829;DHT22;67019;51.034;3.728;2023-05-18T09:52:51;15.30;68.30
77829;DHT22;67019;51.034;3.728;2023-05-18T09:55:19;15.70;68.30
77829;DHT22;67019;51.034;3.728;2023-05-18T09:57:49;15.60;67.10
77829;DHT22;67019;51.034;3.728;2023-05-18T10:00:18;15.70;67.50
77829;DHT22;67019;51.034;3.728;2023-05-18T10:02:48;15.40;69.60
77829;DHT22;67019;51.034;3.728;2023-05-18T10:05:19;15.70;68.30
77829;DHT22;67019;51.034;3.728;2023-05-18T10:07:47;15.80;67.80
77829;DHT22;67019;51.034;3.728;2023-05-18T10:10:19;15.30;66.30
77829;DHT22;67019;51.034;3.728;2023-05-18T10:12:53;15.40;66.90
77829;DHT22;67019;51.034;3.728;2023-05-18T10:15:18;15.70;66.00
77829;DHT22;67019;51.034;3.728;2023-05-18T10:17:50;16.00;64.00
77829;DHT22;67019;51.034;3.728;2023-05-18T10:20:19;16.00;64.50
77829;DHT22;67019;51.034;3.728;2023-05-18T10:22:48;15.90;64.10
77829;DHT22;67019;51.034;3.728;2023-05-18T10:25:18;15.90;65.10
77829;DHT22;67019;51.034;3.728;2023-05-18T10:27:49;15.60;66.60
77829;DHT22;67019;51.034;3.728;2023-05-18T10:30:20;15.50;66.60
77829;DHT22;67019;51.034;3.728;2023-05-18T10:32:50;15.60;65.50
77829;DHT22;67019;51.034;3.728;2023-05-18T10:35:19;15.60;65.70
77829;DHT22;67019;51.034;3.728;2023-05-18T10:37:51;15.60;66.40
77829;DHT22;67019;51.034;3.728;2023-05-18T10:40:20;15.80;66.50
77829;DHT22;67019;51.034;3.728;2023-05-18T10:42:50;15.80;66.40
77829;DHT22;67019;51.034;3.728;2023-05-18T10:45:18;15.90;65.90
77829;DHT22;67019;51.034;3.728;2023-05-18T10:47:47;15.90;65.60
77829;DHT22;67019;51.034;3.728;2023-05-18T10:50:19;15.90;65.50
77829;DHT22;67019;51.034;3.728;2023-05-18T10:52:47;15.90;64.70
77829;DHT22;67019;51.034;3.728;2023-05-18T10:55:17;15.40;65.90
77829;DHT22;67019;51.034;3.728;2023-05-18T10:57:53;15.50;66.80
77829;DHT22;67019;51.034;3.728;2023-05-18T11:00:18;15.40;66.80
77829;DHT22;67019;51.034;3.728;2023-05-18T11:02:46;15.60;66.70
77829;DHT22;67019;51.034;3.728;2023-05-18T11:05:23;15.80;64.60
77829;DHT22;67019;51.034;3.728;2023-05-18T11:08:02;16.00;64.30
77829;DHT22;67019;51.034;3.728;2023-05-18T11:10:22;16.50;62.50
77829;DHT22;67019;51.034;3.728;2023-05-18T11:12:50;15.80;63.70
77829;DHT22;67019;51.034;3.728;2023-05-18T11:15:19;15.60;65.40
77829;DHT22;67019;51.034;3.728;2023-05-18T11:17:50;15.20;65.10
77829;DHT22;67019;51.034;3.728;2023-05-18T11:20:16;15.30;66.10
77829;DHT22;67019;51.034;3.728;2023-05-18T11:28:05;15.60;64.70
77829;DHT22;67019;51.034;3.728;2023-05-18T11:38:22;16.70;61.80
77829;DHT22;67019;51.034;3.728;2023-05-18T11:40:50;16.50;60.70
77829;DHT22;67019;51.034;3.728;2023-05-18T11:43:22;16.50;62.00
77829;DHT22;67019;51.034;3.728;2023-05-18T11:45:54;16.30;62.00
77829;DHT22;67019;51.034;3.728;2023-05-18T11:48:27;16.50;60.20
77829;DHT22;67019;51.034;3.728;2023-05-18T11:50:55;16.50;60.80
77829;DHT22;67019;51.034;3.728;2023-05-18T11:53:24;16.60;60.70
77829;DHT22;67019;51.034;3.728;2023-05-18T11:55:52;16.40;60.90
77829;DHT22;67019;51.034;3.728;2023-05-18T11:58:26;16.40;62.00
77829;DHT22;67019;51.034;3.728;2023-05-18T12:00:56;16.30;61.10
77829;DHT22;67019;51.034;3.728;2023-05-18T12:03:25;16.30;62.20
77829;DHT22;67019;51.034;3.728;2023-05-18T12:05:56;16.40;62.00
77829;DHT22;67019;51.034;3.728;2023-05-18T12:08:22;16.10;61.10
77829;DHT22;67019;51.034;3.728;2023-05-18T12:10:52;16.00;62.00
77829;DHT22;67019;51.034;3.728;2023-05-18T12:13:19;16.00;62.80
77829;DHT22;67019;51.034;3.728;2023-05-18T12:15:49;16.10;62.40
77829;DHT22;67019;51.034;3.728;2023-05-18T12:18:18;16.10;63.20
77829;DHT22;67019;51.034;3.728;2023-05-18T12:20:47;16.30;62.50
77829;DHT22;67019;51.034;3.728;2023-05-18T12:23:15;16.80;61.20
77829;DHT22;67019;51.034;3.728;2023-05-18T12:25:43;16.60;61.50
77829;DHT22;67019;51.034;3.728;2023-05-18T12:28:11;16.50;61.80
77829;DHT22;67019;51.034;3.728;2023-05-18T12:30:41;16.50;61.70
77829;DHT22;67019;51.034;3.728;2023-05-18T12:33:10;16.10;62.30
77829;DHT22;67019;51.034;3.728;2023-05-18T12:35:39;16.10;63.10
77829;DHT22;67019;51.034;3.728;2023-05-18T12:38:07;16.20;62.90
77829;DHT22;67019;51.034;3.728;2023-05-18T12:40:36;16.50;61.90
77829;DHT22;67019;51.034;3.728;2023-05-18T12:43:05;16.90;59.80
77829;DHT22;67019;51.034;3.728;2023-05-18T12:45:33;16.60;60.20
77829;DHT22;67019;51.034;3.728;2023-05-18T12:48:05;16.50;61.00
77829;DHT22;67019;51.034;3.728;2023-05-18T12:50:33;16.60;61.70
77829;DHT22;67019;51.034;3.728;2023-05-18T12:53:02;16.90;61.00
77829;DHT22;67019;51.034;3.728;2023-05-18T12:55:30;16.70;61.30
77829;DHT22;67019;51.034;3.728;2023-05-18T13:00:32;16.90;61.20
77829;DHT22;67019;51.034;3.728;2023-05-18T13:03:12;17.10;60.30
77829;DHT22;67019;51.034;3.728;2023-05-18T13:05:43;17.20;60.30
77829;DHT22;67019;51.034;3.728;2023-05-18T13:08:15;17.00;61.00
77829;DHT22;67019;51.034;3.728;2023-05-18T13:10:44;17.50;60.60
77829;DHT22;67019;51.034;3.728;2023-05-18T13:13:14;17.20;60.00
77829;DHT22;67019;51.034;3.728;2023-05-18T13:15:42;17.10;60.30
77829;DHT22;67019;51.034;3.728;2023-05-18T13:18:10;17.00;60.70
77829;DHT22;67019;51.034;3.728;2023-05-18T13:20:39;17.40;59.40
77829;DHT22;67019;51.034;3.728;2023-05-18T13:23:12;17.50;59.10
77829;DHT22;67019;51.034;3.728;2023-05-18T13:25:41;17.60;58.10
77829;DHT22;67019;51.034;3.728;2023-05-18T13:28:10;17.40;57.90
77829;DHT22;67019;51.034;3.728;2023-05-18T13:30:39;17.10;58.20
77829;DHT22;67019;51.034;3.728;2023-05-18T13:33:08;17.00;59.90
77829;DHT22;67019;51.034;3.728;2023-05-18T13:35:37;17.40;59.90
77829;DHT22;67019;51.034;3.728;2023-05-18T13:38:06;17.60;59.70
77829;DHT22;67019;51.034;3.728;2023-05-18T13:40:33;18.20;57.70
77829;DHT22;67019;51.034;3.728;2023-05-18T13:43:01;18.60;52.90
77829;DHT22;67019;51.034;3.728;2023-05-18T13:45:31;19.80;53.40
77829;DHT22;67019;51.034;3.728;2023-05-18T13:47:58;20.30;53.10
77829;DHT22;67019;51.034;3.728;2023-05-18T13:50:26;21.20;51.60
77829;DHT22;67019;51.034;3.728;2023-05-18T13:52:54;22.20;48.90
77829;DHT22;67019;51.034;3.728;2023-05-18T13:55:23;22.40;47.60
77829;DHT22;67019;51.034;3.728;2023-05-18T13:57:51;22.30;45.80
77829;DHT22;67019;51.034;3.728;2023-05-18T14:00:19;22.50;46.30
77829;DHT22;67019;51.034;3.728;2023-05-18T14:02:47;23.10;45.50
77829;DHT22;67019;51.034;3.728;2023-05-18T14:05:14;23.10;44.10
77829;DHT22;67019;51.034;3.728;2023-05-18T14:07:42;22.10;46.90
77829;DHT22;67019;51.034;3.728;2023-05-18T14:10:11;22.10;47.40
77829;DHT22;67019;51.034;3.728;2023-05-18T14:12:39;21.90;46.90
77829;DHT22;67019;51.034;3.728;2023-05-18T14:15:09;22.90;46.10
77829;DHT22;67019;51.034;3.728;2023-05-18T14:17:39;23.30;45.00
77829;DHT22;67019;51.034;3.728;2023-05-18T14:20:07;24.10;43.40
77829;DHT22;67019;51.034;3.728;2023-05-18T14:22:35;23.30;43.90
77829;DHT22;67019;51.034;3.728;2023-05-18T14:25:02;23.90;44.20
77829;DHT22;67019;51.034;3.728;2023-05-18T14:27:30;23.50;43.90
77829;DHT22;67019;51.034;3.728;2023-05-18T14:29:58;22.20;45.70
77829;DHT22;67019;51.034;3.728;2023-05-18T14:32:26;23.10;45.30
77829;DHT22;67019;51.034;3.728;2023-05-18T14:34:54;22.50;45.00
77829;DHT22;67019;51.034;3.728;2023-05-18T14:37:23;22.30;45.10
77829;DHT22;67019;51.034;3.728;2023-05-18T14:39:51;22.50;44.70
77829;DHT22;67019;51.034;3.728;2023-05-18T14:42:18;22.40;45.60
77829;DHT22;67019;51.034;3.728;2023-05-18T14:44:46;22.90;44.30
77829;DHT22;67019;51.034;3.728;2023-05-18T14:47:14;23.00;44.20
77829;DHT22;67019;51.034;3.728;2023-05-18T14:49:42;22.30;45.70
77829;DHT22;67019;51.034;3.728;2023-05-18T14:52:10;23.60;43.80
77829;DHT22;67019;51.034;3.728;2023-05-18T14:54:37;23.30;42.90
77829;DHT22;67019;51.034;3.728;2023-05-18T14:57:05;23.40;42.50
77829;DHT22;67019;51.034;3.728;2023-05-18T14:59:33;23.90;42.50
77829;DHT22;67019;51.034;3.728;2023-05-18T15:02:01;24.00;42.90
77829;DHT22;67019;51.034;3.728;2023-05-18T15:04:28;23.70;42.50
77829;DHT22;67019;51.034;3.728;2023-05-18T15:06:56;24.30;42.30
77829;DHT22;67019;51.034;3.728;2023-05-18T15:09:24;23.70;42.30
77829;DHT22;67019;51.034;3.728;2023-05-18T15:11:51;23.40;42.40
77829;DHT22;67019;51.034;3.728;2023-05-18T15:14:19;22.60;43.80
77829;DHT22;67019;51.034;3.728;2023-05-18T15:16:46;22.70;45.10
77829;DHT22;67019;51.034;3.728;2023-05-18T15:19:14;23.80;42.50
77829;DHT22;67019;51.034;3.728;2023-05-18T15:21:42;24.50;41.40
77829;DHT22;67019;51.034;3.728;2023-05-18T15:24:10;24.80;40.60
77829;DHT22;67019;51.034;3.728;2023-05-18T15:26:38;24.80;40.80
77829;DHT22;67019;51.034;3.728;2023-05-18T15:29:07;24.40;40.60
77829;DHT22;67019;51.034;3.728;2023-05-18T15:31:36;24.00;41.00
77829;DHT22;67019;51.034;3.728;2023-05-18T15:34:05;24.80;40.40
77829;DHT22;67019;51.034;3.728;2023-05-18T15:36:33;24.20;40.30
77829;DHT22;67019;51.034;3.728;2023-05-18T15:39:01;24.20;41.10
77829;DHT22;67019;51.034;3.728;2023-05-18T15:41:32;24.00;41.40
77829;DHT22;67019;51.034;3.728;2023-05-18T15:44:02;24.70;40.20
77829;DHT22;67019;51.034;3.728;2023-05-18T15:46:30;24.70;39.80
77829;DHT22;67019;51.034;3.728;2023-05-18T15:49:00;25.20;39.20
77829;DHT22;67019;51.034;3.728;2023-05-18T15:51:28;24.50;40.90
77829;DHT22;67019;51.034;3.728;2023-05-18T15:53:56;24.40;40.50
77829;DHT22;67019;51.034;3.728;2023-05-18T15:56:24;23.10;41.90
77829;DHT22;67019;51.034;3.728;2023-05-18T15:58:52;23.00;43.10
77829;DHT22;67019;51.034;3.728;2023-05-18T16:01:19;23.30;42.50
77829;DHT22;67019;51.034;3.728;2023-05-18T16:03:47;22.90;43.00
77829;DHT22;67019;51.034;3.728;2023-05-18T16:06:14;23.50;42.20
77829;DHT22;67019;51.034;3.728;2023-05-18T16:08:42;22.60;42.30
77829;DHT22;67019;51.034;3.728;2023-05-18T16:11:11;22.40;43.60
77829;DHT22;67019;51.034;3.728;2023-05-18T16:13:39;21.90;44.40
77829;DHT22;67019;51.034;3.728;2023-05-18T16:16:06;21.90;44.30
77829;DHT22;67019;51.034;3.728;2023-05-18T16:18:35;21.50;45.90
77829;DHT22;67019;51.034;3.728;2023-05-18T16:21:03;21.60;44.90
77829;DHT22;67019;51.034;3.728;2023-05-18T16:23:31;22.20;43.10
77829;DHT22;67019;51.034;3.728;2023-05-18T16:25:58;22.10;43.60
77829;DHT22;67019;51.034;3.728;2023-05-18T16:28:28;21.30;44.90
77829;DHT22;67019;51.034;3.728;2023-05-18T16:30:55;20.80;46.30
77829;DHT22;67019;51.034;3.728;2023-05-18T16:33:23;20.60;46.90
77829;DHT22;67019;51.034;3.728;2023-05-18T16:35:51;20.70;46.40
77829;DHT22;67019;51.034;3.728;2023-05-18T16:38:18;21.00;46.60
77829;DHT22;67019;51.034;3.728;2023-05-18T16:40:46;21.40;45.40
77829;DHT22;67019;51.034;3.728;2023-05-18T16:43:14;21.80;44.20
77829;DHT22;67019;51.034;3.728;2023-05-18T16:45:41;22.40;43.10
77829;DHT22;67019;51.034;3.728;2023-05-18T16:48:09;22.20;43.20
77829;DHT22;67019;51.034;3.728;2023-05-18T16:50:37;22.20;43.80
77829;DHT22;67019;51.034;3.728;2023-05-18T16:53:04;22.80;42.50
77829;DHT22;67019;51.034;3.728;2023-05-18T16:55:32;23.10;41.90
77829;DHT22;67019;51.034;3.728;2023-05-18T16:57:59;23.30;41.10
77829;DHT22;67019;51.034;3.728;2023-05-18T17:00:27;23.70;40.50
77829;DHT22;67019;51.034;3.728;2023-05-18T17:02:55;23.10;41.50
77829;DHT22;67019;51.034;3.728;2023-05-18T17:05:23;23.00;41.70
77829;DHT22;67019;51.034;3.728;2023-05-18T17:07:52;22.50;42.40
77829;DHT22;67019;51.034;3.728;2023-05-18T17:10:19;22.20;43.00
77829;DHT22;67019;51.034;3.728;2023-05-18T17:12:47;22.70;42.20
77829;DHT22;67019;51.034;3.728;2023-05-18T17:15:14;22.60;42.30
77829;DHT22;67019;51.034;3.728;2023-05-18T17:17:42;21.60;44.30
77829;DHT22;67019;51.034;3.728;2023-05-18T17:20:10;21.90;44.00
77829;DHT22;67019;51.034;3.728;2023-05-18T17:22:38;21.30;45.40
77829;DHT22;67019;51.034;3.728;2023-05-18T17:25:06;20.10;47.70
77829;DHT22;67019;51.034;3.728;2023-05-18T17:27:34;19.60;48.60
77829;DHT22;67019;51.034;3.728;2023-05-18T17:30:01;18.80;50.00
77829;DHT22;67019;51.034;3.728;2023-05-18T17:32:29;18.40;50.90
77829;DHT22;67019;51.034;3.728;2023-05-18T17:34:57;18.10;52.40
77829;DHT22;67019;51.034;3.728;2023-05-18T17:37:24;17.40;53.20
77829;DHT22;67019;51.034;3.728;2023-05-18T17:39:53;17.30;54.00
77829;DHT22;67019;51.034;3.728;2023-05-18T17:42:20;17.10;53.70
77829;DHT22;67019;51.034;3.728;2023-05-18T17:44:48;17.10;55.10
77829;DHT22;67019;51.034;3.728;2023-05-18T17:47:16;16.80;55.50
77829;DHT22;67019;51.034;3.728;2023-05-18T17:49:43;16.30;55.90
77829;DHT22;67019;51.034;3.728;2023-05-18T17:52:11;16.20;56.70
77829;DHT22;67019;51.034;3.728;2023-05-18T17:54:38;16.10;56.60
77829;DHT22;67019;51.034;3.728;2023-05-18T17:57:06;16.10;58.20
77829;DHT22;67019;51.034;3.728;2023-05-18T17:59:34;16.00;57.40
77829;DHT22;67019;51.034;3.728;2023-05-18T18:02:01;16.00;58.60
77829;DHT22;67019;51.034;3.728;2023-05-18T18:04:29;16.00;58.40
77829;DHT22;67019;51.034;3.728;2023-05-18T18:06:56;16.10;58.80
77829;DHT22;67019;51.034;3.728;2023-05-18T18:09:26;16.20;57.70
77829;DHT22;67019;51.034;3.728;2023-05-18T18:11:55;15.80;57.70
77829;DHT22;67019;51.034;3.728;2023-05-18T18:14:23;15.70;58.50
77829;DHT22;67019;51.034;3.728;2023-05-18T18:16:51;15.60;58.80
77829;DHT22;67019;51.034;3.728;2023-05-18T18:19:18;15.70;59.80
77829;DHT22;67019;51.034;3.728;2023-05-18T18:21:46;15.80;58.70
77829;DHT22;67019;51.034;3.728;2023-05-18T18:24:14;15.80;57.70
77829;DHT22;67019;51.034;3.728;2023-05-18T18:26:41;15.80;58.70
77829;DHT22;67019;51.034;3.728;2023-05-18T18:29:09;15.90;58.90